Time;durP1;ratioP1;P1;durP2;ratioP2;P2;SDS_P1;SDS_P2;PMS_P1;PMS_P2;Temp;Humidity;BMP_temperature;BMP_pressure;BME280_temperature;BME280_humidity;BME280_pressure;Samples;Min_cycle;Max_cycle;Signal;HPM_P1;HPM_P2
2023/08/04 00:00:33;;;;;;;4.10;1.35;;;;;;;;;;7368451;19;20034;-72
2023/08/04 00:02:59;;;;;;;1.58;1.20;;;;;;;;;;7388968;19;20006;-71
2023/08/04 00:05:24;;;;;;;1.65;1.40;;;;;;;;;;7366054;19;20037;-71
2023/08/04 00:07:49;;;;;;;2.05;1.30;;;;;;;;;;7367295;19;20036;-71
2023/08/04 00:10:15;;;;;;;4.50;1.50;;;;;;;;;;7366935;19;20049;-71
2023/08/04 00:12:40;;;;;;;1.70;1.30;;;;;;;;;;7367463;19;20003;-71
2023/08/04 00:15:06;;;;;;;1.65;1.40;;;;;;;;;;7386676;19;20015;-71
2023/08/04 00:17:33;;;;;;;4.22;1.70;;;;;;;;;;7367908;19;20006;-72
2023/08/04 00:19:59;;;;;;;3.40;1.50;;;;;;;;;;7367235;19;20007;-70
2023/08/04 00:22:24;;;;;;;2.67;1.40;;;;;;;;;;7368009;19;20019;-71
2023/08/04 00:24:49;;;;;;;2.25;1.48;;;;;;;;;;7365760;19;20035;-71
2023/08/04 00:27:14;;;;;;;2.15;1.30;;;;;;;;;;7367335;19;20006;-71
2023/08/04 00:29:40;;;;;;;2.60;1.50;;;;;;;;;;7388226;19;19999;-71
2023/08/04 00:32:05;;;;;;;1.80;1.45;;;;;;;;;;7365552;19;20014;-72
2023/08/04 00:34:30;;;;;;;4.10;1.55;;;;;;;;;;7366563;19;20006;-72
2023/08/04 00:36:56;;;;;;;4.05;1.40;;;;;;;;;;7366899;19;20003;-71
2023/08/04 00:39:21;;;;;;;2.83;1.48;;;;;;;;;;7364471;19;20014;-72
2023/08/04 00:41:47;;;;;;;5.13;1.50;;;;;;;;;;7385144;19;20007;-72
2023/08/04 00:44:15;;;;;;;4.55;1.55;;;;;;;;;;7366259;19;20055;-71
2023/08/04 00:46:40;;;;;;;1.98;1.40;;;;;;;;;;7367984;19;20018;-72
2023/08/04 00:49:07;;;;;;;4.95;1.48;;;;;;;;;;7371021;19;20469;-72
2023/08/04 00:51:33;;;;;;;3.20;1.90;;;;;;;;;;7371213;19;20709;-72
2023/08/04 00:53:59;;;;;;;3.75;1.40;;;;;;;;;;7391453;19;20007;-72
2023/08/04 00:56:25;;;;;;;3.63;1.40;;;;;;;;;;7370674;19;20086;-73
2023/08/04 00:58:53;;;;;;;3.03;1.50;;;;;;;;;;7371089;19;20011;-72
2023/08/04 01:01:18;;;;;;;2.30;1.50;;;;;;;;;;7369561;19;20090;-72
2023/08/04 01:03:44;;;;;;;1.52;1.40;;;;;;;;;;7370685;19;20031;-73
2023/08/04 01:06:38;;;;;;;4.13;1.33;;;;;;;;;;7373324;19;20809;-74
2023/08/04 01:09:09;;;;;;;3.72;1.40;;;;;;;;;;7391499;19;20006;-72
2023/08/04 01:11:42;;;;;;;2.28;1.58;;;;;;;;;;7372922;19;20042;-72
2023/08/04 01:14:10;;;;;;;3.50;1.50;;;;;;;;;;7370909;19;20353;-71
2023/08/04 01:16:36;;;;;;;2.53;1.45;;;;;;;;;;7371620;19;20578;-72
2023/08/04 01:19:01;;;;;;;5.38;1.77;;;;;;;;;;7372832;19;20076;-72
2023/08/04 01:21:27;;;;;;;1.95;1.50;;;;;;;;;;7372490;19;20015;-72
2023/08/04 01:23:53;;;;;;;1.50;1.40;;;;;;;;;;7395756;19;20007;-72
2023/08/04 01:26:20;;;;;;;3.60;1.23;;;;;;;;;;7371693;19;20006;-72
2023/08/04 01:28:47;;;;;;;4.22;1.38;;;;;;;;;;7372695;19;20022;-72
2023/08/04 01:31:12;;;;;;;9.55;1.60;;;;;;;;;;7372114;19;20010;-71
2023/08/04 01:33:38;;;;;;;2.70;1.40;;;;;;;;;;7371668;19;20011;-72
2023/08/04 01:36:04;;;;;;;4.18;1.60;;;;;;;;;;7393545;19;20002;-71
2023/08/04 01:38:29;;;;;;;3.30;1.65;;;;;;;;;;7367434;19;20002;-72
2023/08/04 01:40:54;;;;;;;1.35;1.25;;;;;;;;;;7370061;19;20002;-72
2023/08/04 01:43:20;;;;;;;2.20;1.60;;;;;;;;;;7369189;19;20021;-72
2023/08/04 01:45:45;;;;;;;2.30;1.50;;;;;;;;;;7371239;19;20091;-72
2023/08/04 01:48:11;;;;;;;2.00;1.40;;;;;;;;;;7370718;19;20356;-72
2023/08/04 01:50:36;;;;;;;2.25;1.60;;;;;;;;;;7392567;19;19998;-71
2023/08/04 01:53:01;;;;;;;3.55;1.83;;;;;;;;;;7371083;19;20633;-72
2023/08/04 01:55:27;;;;;;;3.47;1.40;;;;;;;;;;7370054;19;20006;-72
2023/08/04 01:57:52;;;;;;;1.75;1.48;;;;;;;;;;7371323;19;20468;-72
2023/08/04 02:00:18;;;;;;;4.35;1.60;;;;;;;;;;7371247;19;20026;-72
2023/08/04 02:02:44;;;;;;;1.63;1.50;;;;;;;;;;7393775;19;20480;-71
2023/08/04 02:05:09;;;;;;;3.80;1.80;;;;;;;;;;7370716;19;20010;-72
2023/08/04 02:07:35;;;;;;;2.20;1.48;;;;;;;;;;7372083;19;20022;-72
2023/08/04 02:10:00;;;;;;;2.75;1.60;;;;;;;;;;7372678;19;20723;-72
2023/08/04 02:12:25;;;;;;;4.80;1.60;;;;;;;;;;7370983;19;20010;-71
2023/08/04 02:14:51;;;;;;;4.40;1.83;;;;;;;;;;7391159;19;20473;-72
2023/08/04 02:17:17;;;;;;;3.38;1.60;;;;;;;;;;7371277;19;20010;-73
2023/08/04 02:19:43;;;;;;;3.08;1.75;;;;;;;;;;7369876;19;20451;-72
2023/08/04 02:22:08;;;;;;;3.17;1.70;;;;;;;;;;7370603;19;20006;-72
2023/08/04 02:24:33;;;;;;;1.60;1.50;;;;;;;;;;7370179;19;20074;-72
2023/08/04 02:26:59;;;;;;;3.13;1.80;;;;;;;;;;7393008;19;20002;-72
2023/08/04 02:29:24;;;;;;;5.00;1.90;;;;;;;;;;7370375;19;20484;-71
2023/08/04 02:31:50;;;;;;;3.53;1.63;;;;;;;;;;7370760;19;20512;-71
2023/08/04 02:34:15;;;;;;;3.97;1.60;;;;;;;;;;7377464;19;20017;-72
2023/08/04 02:36:40;;;;;;;5.10;1.73;;;;;;;;;;7377697;19;20013;-72
2023/08/04 02:39:06;;;;;;;2.67;1.70;;;;;;;;;;7395073;19;20077;-72
2023/08/04 02:41:33;;;;;;;2.42;1.70;;;;;;;;;;7369333;19;20049;-73
2023/08/04 02:43:58;;;;;;;2.72;1.50;;;;;;;;;;7369608;19;20432;-74
2023/08/04 02:46:25;;;;;;;3.30;1.58;;;;;;;;;;7367290;19;20015;-72
2023/08/04 02:48:51;;;;;;;3.58;1.70;;;;;;;;;;7370070;19;20014;-73
2023/08/04 02:51:16;;;;;;;2.70;1.52;;;;;;;;;;7369162;19;20006;-72
2023/08/04 02:53:46;;;;;;;3.38;1.80;;;;;;;;;;7389722;19;20050;-72
2023/08/04 02:56:14;;;;;;;5.27;1.90;;;;;;;;;;7369523;19;20010;-72
2023/08/04 02:58:40;;;;;;;3.78;1.98;;;;;;;;;;7370030;19;20465;-72
2023/08/04 03:01:05;;;;;;;5.28;1.77;;;;;;;;;;7368638;19;20010;-72
2023/08/04 03:03:31;;;;;;;3.78;1.80;;;;;;;;;;7368449;19;20010;-72
2023/08/04 03:05:58;;;;;;;4.00;1.80;;;;;;;;;;7390774;19;20021;-72
2023/08/04 03:08:23;;;;;;;4.93;1.60;;;;;;;;;;7367801;19;20010;-72
2023/08/04 03:10:48;;;;;;;3.58;1.70;;;;;;;;;;7367683;19;20138;-72
2023/08/04 03:13:14;;;;;;;2.58;1.70;;;;;;;;;;7368911;19;20010;-72
2023/08/04 03:15:39;;;;;;;2.88;1.98;;;;;;;;;;7368552;19;19998;-72
2023/08/04 03:18:04;;;;;;;3.25;2.10;;;;;;;;;;7390353;19;20702;-72
2023/08/04 03:20:36;;;;;;;3.20;1.95;;;;;;;;;;7367666;19;20270;-71
2023/08/04 03:23:01;;;;;;;3.45;2.05;;;;;;;;;;7368061;19;20014;-71
2023/08/04 03:25:27;;;;;;;6.60;2.47;;;;;;;;;;7366848;19;20013;-72
2023/08/04 03:27:52;;;;;;;3.13;2.10;;;;;;;;;;7368258;19;20066;-72
2023/08/04 03:30:17;;;;;;;7.75;2.58;;;;;;;;;;7367719;19;20062;-72
2023/08/04 03:32:43;;;;;;;6.82;2.53;;;;;;;;;;7388751;19;19998;-71
2023/08/04 03:35:08;;;;;;;8.38;2.95;;;;;;;;;;7366877;19;20018;-70
2023/08/04 03:37:34;;;;;;;7.55;3.08;;;;;;;;;;7368471;19;20027;-71
2023/08/04 03:39:59;;;;;;;12.98;4.00;;;;;;;;;;7366319;19;20003;-72
2023/08/04 03:42:25;;;;;;;10.82;3.75;;;;;;;;;;7367726;19;20013;-71
2023/08/04 03:44:50;;;;;;;14.50;3.72;;;;;;;;;;7382692;19;20066;-71
2023/08/04 03:47:15;;;;;;;17.67;4.38;;;;;;;;;;7366372;19;20352;-71
2023/08/04 03:49:41;;;;;;;16.00;4.47;;;;;;;;;;7365813;19;20010;-72
2023/08/04 03:52:06;;;;;;;13.63;4.10;;;;;;;;;;7367670;19;20081;-73
2023/08/04 03:54:31;;;;;;;19.95;5.00;;;;;;;;;;7366597;19;20010;-73
2023/08/04 03:56:57;;;;;;;19.52;4.70;;;;;;;;;;7390916;19;20351;-72
2023/08/04 03:59:22;;;;;;;19.35;5.15;;;;;;;;;;7367918;19;20473;-72
2023/08/04 04:01:47;;;;;;;18.20;4.70;;;;;;;;;;7364404;19;20010;-71
2023/08/04 04:04:13;;;;;;;14.60;4.72;;;;;;;;;;7367895;19;20007;-71
2023/08/04 04:06:38;;;;;;;15.13;5.03;;;;;;;;;;7371127;19;20002;-72
2023/08/04 04:09:03;;;;;;;12.50;4.50;;;;;;;;;;7390753;19;20104;-70
2023/08/04 04:11:29;;;;;;;9.63;4.13;;;;;;;;;;7367187;19;20465;-70
2023/08/04 04:13:54;;;;;;;10.15;3.80;;;;;;;;;;7366335;19;20011;-71
2023/08/04 04:16:20;;;;;;;9.35;4.20;;;;;;;;;;7366280;19;20014;-70
2023/08/04 04:18:46;;;;;;;9.85;4.45;;;;;;;;;;7365258;19;20013;-70
2023/08/04 04:21:11;;;;;;;7.35;3.95;;;;;;;;;;7368387;19;20070;-72
2023/08/04 04:23:36;;;;;;;8.40;4.43;;;;;;;;;;7392423;19;20034;-71
2023/08/04 04:26:03;;;;;;;12.55;4.45;;;;;;;;;;7369795;19;20014;-70
2023/08/04 04:28:29;;;;;;;10.98;4.82;;;;;;;;;;7367312;19;20016;-71
2023/08/04 04:31:02;;;;;;;8.32;4.45;;;;;;;;;;7371320;19;20018;-72
2023/08/04 04:33:27;;;;;;;14.15;4.40;;;;;;;;;;7370910;19;20571;-72
2023/08/04 04:35:54;;;;;;;8.82;3.95;;;;;;;;;;7394915;19;19999;-72
2023/08/04 04:38:19;;;;;;;7.60;3.80;;;;;;;;;;7370856;19;20011;-72
2023/08/04 04:41:00;;;;;;;10.40;4.60;;;;;;;;;;7371552;19;20019;-71
2023/08/04 04:43:26;;;;;;;;;;;;;;;;;;7367742;19;20022;-71
2023/08/04 04:45:52;;;;;;;6.57;3.72;;;;;;;;;;7364432;19;20412;-72
2023/08/04 04:48:18;;;;;;;7.13;4.03;;;;;;;;;;7366315;19;20003;-71
2023/08/04 04:50:44;;;;;;;8.50;3.85;;;;;;;;;;7391975;19;20433;-71
2023/08/04 04:53:09;;;;;;;10.15;4.22;;;;;;;;;;7370993;19;20006;-70
2023/08/04 04:55:35;;;;;;;9.35;4.65;;;;;;;;;;7371832;19;20006;-71
2023/08/04 04:58:00;;;;;;;12.13;4.53;;;;;;;;;;7371026;19;20375;-73
2023/08/04 05:00:26;;;;;;;9.77;4.97;;;;;;;;;;7370117;19;19995;-72
2023/08/04 05:02:51;;;;;;;8.75;4.90;;;;;;;;;;7395039;19;19999;-71
2023/08/04 05:05:16;;;;;;;10.50;5.15;;;;;;;;;;7371885;19;20010;-72
2023/08/04 05:07:41;;;;;;;12.30;5.50;;;;;;;;;;7370088;19;20001;-72
2023/08/04 05:10:08;;;;;;;10.35;5.10;;;;;;;;;;7372515;19;20452;-72
2023/08/04 05:12:33;;;;;;;10.15;5.15;;;;;;;;;;7374534;19;20028;-71
2023/08/04 05:14:59;;;;;;;12.52;5.53;;;;;;;;;;7392037;19;20006;-73
2023/08/04 05:17:24;;;;;;;9.52;5.63;;;;;;;;;;7372588;19;20006;-72
2023/08/04 05:19:49;;;;;;;13.48;5.35;;;;;;;;;;7371597;19;20729;-71
2023/08/04 05:22:15;;;;;;;13.82;5.63;;;;;;;;;;7372043;19;20014;-72
2023/08/04 05:24:40;;;;;;;13.95;5.93;;;;;;;;;;7370946;19;20006;-72
2023/08/04 05:27:05;;;;;;;13.38;5.85;;;;;;;;;;7395011;19;20349;-72
2023/08/04 05:29:31;;;;;;;14.88;6.15;;;;;;;;;;7371796;19;20066;-71
2023/08/04 05:31:56;;;;;;;11.75;6.18;;;;;;;;;;7370895;19;20007;-71
2023/08/04 05:34:21;;;;;;;14.30;6.43;;;;;;;;;;7371014;19;20002;-71
2023/08/04 05:36:47;;;;;;;14.30;7.03;;;;;;;;;;7371832;19;20049;-72
2023/08/04 05:39:12;;;;;;;13.57;7.22;;;;;;;;;;7371047;19;20003;-72
2023/08/04 05:41:37;;;;;;;11.85;6.72;;;;;;;;;;7391873;19;19999;-72
2023/08/04 05:44:03;;;;;;;11.30;6.28;;;;;;;;;;7369851;19;20697;-72
2023/08/04 05:46:28;;;;;;;13.40;6.57;;;;;;;;;;7362562;19;20027;-72
2023/08/04 05:48:54;;;;;;;11.00;6.35;;;;;;;;;;7365871;19;20014;-72
2023/08/04 05:51:19;;;;;;;10.88;6.40;;;;;;;;;;7370979;19;20504;-72
2023/08/04 05:53:45;;;;;;;11.52;6.45;;;;;;;;;;7392498;19;20006;-72
2023/08/04 05:56:10;;;;;;;12.65;6.85;;;;;;;;;;7370726;19;20007;-72
2023/08/04 05:58:36;;;;;;;13.52;6.30;;;;;;;;;;7371669;19;20010;-72
2023/08/04 06:01:01;;;;;;;13.02;6.13;;;;;;;;;;7370492;19;20027;-73
2023/08/04 06:03:26;;;;;;;12.05;6.68;;;;;;;;;;7371121;19;20062;-73
2023/08/04 06:05:52;;;;;;;14.50;6.10;;;;;;;;;;7394127;19;20074;-72
2023/08/04 06:08:17;;;;;;;12.18;6.32;;;;;;;;;;7371684;19;20019;-72
2023/08/04 06:10:42;;;;;;;12.75;6.68;;;;;;;;;;7371665;19;20029;-73
2023/08/04 06:13:08;;;;;;;12.50;6.47;;;;;;;;;;7370409;19;20610;-74
2023/08/04 06:15:33;;;;;;;14.07;7.13;;;;;;;;;;7370637;19;20010;-76
2023/08/04 06:17:58;;;;;;;14.10;6.65;;;;;;;;;;7391700;19;20002;-73
2023/08/04 06:20:24;;;;;;;14.13;6.90;;;;;;;;;;7369598;19;20335;-73
2023/08/04 06:22:49;;;;;;;11.82;6.78;;;;;;;;;;7368971;19;20471;-73
2023/08/04 06:25:15;;;;;;;12.45;7.28;;;;;;;;;;7369303;19;20041;-73
2023/08/04 06:27:40;;;;;;;11.55;6.38;;;;;;;;;;7369811;19;20032;-72
2023/08/04 06:30:06;;;;;;;10.45;6.75;;;;;;;;;;7393804;19;20469;-71
2023/08/04 06:32:32;;;;;;;10.25;7.00;;;;;;;;;;7374983;19;20009;-72
2023/08/04 06:34:57;;;;;;;11.85;6.90;;;;;;;;;;7372998;19;20439;-71
2023/08/04 06:37:23;;;;;;;12.90;7.03;;;;;;;;;;7369335;19;20006;-71
2023/08/04 06:39:49;;;;;;;10.68;6.85;;;;;;;;;;7368677;19;20002;-72
2023/08/04 06:42:15;;;;;;;12.48;6.85;;;;;;;;;;7367964;19;20005;-71
2023/08/04 06:44:41;;;;;;;11.15;7.30;;;;;;;;;;7387063;19;20738;-72
2023/08/04 06:47:06;;;;;;;11.55;6.97;;;;;;;;;;7369187;19;20017;-73
2023/08/04 06:49:31;;;;;;;14.52;7.38;;;;;;;;;;7369898;19;20010;-71
2023/08/04 06:51:57;;;;;;;14.02;7.57;;;;;;;;;;7369539;19;20010;-71
2023/08/04 06:54:22;;;;;;;12.00;7.13;;;;;;;;;;7355964;19;20002;-72
2023/08/04 06:56:47;;;;;;;10.07;7.10;;;;;;;;;;7391275;19;20002;-72
2023/08/04 06:59:13;;;;;;;13.27;7.30;;;;;;;;;;7368532;19;20010;-70
2023/08/04 07:01:38;;;;;;;15.48;7.78;;;;;;;;;;7370046;19;20010;-71
2023/08/04 07:04:04;;;;;;;13.95;7.80;;;;;;;;;;7368513;19;20083;-72
2023/08/04 07:06:29;;;;;;;12.63;7.63;;;;;;;;;;7370002;19;20014;-73
2023/08/04 07:08:55;;;;;;;13.55;7.53;;;;;;;;;;7390215;19;20062;-71
2023/08/04 07:11:20;;;;;;;13.65;7.97;;;;;;;;;;7369115;19;20002;-72
2023/08/04 07:13:46;;;;;;;11.88;8.35;;;;;;;;;;7366796;19;20101;-73
2023/08/04 07:16:12;;;;;;;12.90;7.55;;;;;;;;;;7369402;19;20010;-73
2023/08/04 07:18:38;;;;;;;13.07;8.40;;;;;;;;;;7368109;19;20047;-72
2023/08/04 07:21:09;;;;;;;12.98;8.35;;;;;;;;;;7389989;19;20002;-72
2023/08/04 07:23:34;;;;;;;;;;;;;;;;;;7368451;19;20023;-73
2023/08/04 07:26:00;;;;;;;15.18;8.82;;;;;;;;;;7369745;19;19918;-73
2023/08/04 07:28:25;;;;;;;14.38;7.65;;;;;;;;;;7367185;19;20483;-72
2023/08/04 07:30:51;;;;;;;18.60;8.80;;;;;;;;;;7368526;19;20003;-72
2023/08/04 07:33:16;;;;;;;16.35;8.88;;;;;;;;;;7367876;19;20726;-72
2023/08/04 07:35:41;;;;;;;12.02;7.60;;;;;;;;;;7390090;19;19998;-72
2023/08/04 07:38:07;;;;;;;12.40;7.82;;;;;;;;;;7367437;19;20489;-72
2023/08/04 07:40:37;;;;;;;13.13;7.45;;;;;;;;;;7365511;19;20275;-72
2023/08/04 07:43:02;;;;;;;12.47;7.67;;;;;;;;;;7366340;19;20520;-73
2023/08/04 07:45:28;;;;;;;11.75;8.35;;;;;;;;;;7366028;19;20006;-73
2023/08/04 07:47:53;;;;;;;13.35;7.68;;;;;;;;;;7390172;19;20002;-72
2023/08/04 07:50:18;;;;;;;12.68;8.38;;;;;;;;;;7367056;19;20003;-72
2023/08/04 07:52:44;;;;;;;14.55;8.15;;;;;;;;;;7367789;19;20069;-73
2023/08/04 07:55:09;;;;;;;12.88;8.23;;;;;;;;;;7367138;19;20102;-72
2023/08/04 07:57:35;;;;;;;11.27;8.10;;;;;;;;;;7375085;19;20019;-72
2023/08/04 08:00:00;;;;;;;11.93;7.82;;;;;;;;;;7396913;19;20002;-72
2023/08/04 08:02:25;;;;;;;13.55;8.65;;;;;;;;;;7374995;19;20017;-72
2023/08/04 08:04:53;;;;;;;14.10;8.38;;;;;;;;;;7374834;19;20007;-73
2023/08/04 08:07:18;;;;;;;12.90;8.05;;;;;;;;;;7375031;19;20006;-73
2023/08/04 08:09:44;;;;;;;14.20;8.73;;;;;;;;;;7374539;19;20405;-73
2023/08/04 08:12:09;;;;;;;15.73;8.48;;;;;;;;;;7376504;19;20000;-74
2023/08/04 08:14:34;;;;;;;12.48;7.97;;;;;;;;;;7395316;19;20017;-75
2023/08/04 08:16:59;;;;;;;13.50;8.40;;;;;;;;;;7351564;19;20017;-74
2023/08/04 08:19:26;;;;;;;10.68;6.82;;;;;;;;;;7373737;19;20003;-74
2023/08/04 08:21:52;;;;;;;16.38;8.48;;;;;;;;;;7372881;19;20006;-73
2023/08/04 08:24:17;;;;;;;12.85;7.45;;;;;;;;;;7372022;19;20477;-74
2023/08/04 08:26:42;;;;;;;12.15;8.43;;;;;;;;;;7396712;19;20070;-73
2023/08/04 08:29:08;;;;;;;15.73;7.45;;;;;;;;;;7374057;19;20503;-72
2023/08/04 08:31:33;;;;;;;11.27;6.97;;;;;;;;;;7374330;19;20014;-75
2023/08/04 08:33:58;;;;;;;11.82;7.50;;;;;;;;;;7375045;19;20010;-74
2023/08/04 08:36:24;;;;;;;11.52;7.03;;;;;;;;;;7378464;19;20056;-74
2023/08/04 08:38:50;;;;;;;10.27;7.13;;;;;;;;;;7401801;19;20007;-73
2023/08/04 08:41:15;;;;;;;10.88;7.20;;;;;;;;;;7377339;19;20021;-74
2023/08/04 08:43:40;;;;;;;13.25;7.65;;;;;;;;;;7375682;19;20023;-73
2023/08/04 08:46:07;;;;;;;11.50;7.15;;;;;;;;;;7372560;19;20508;-73
2023/08/04 08:48:36;;;;;;;12.55;6.63;;;;;;;;;;7373422;19;20006;-73
2023/08/04 08:51:07;;;;;;;12.05;6.25;;;;;;;;;;7393698;19;20072;-74
2023/08/04 08:53:33;;;;;;;10.98;6.35;;;;;;;;;;7372959;19;20624;-74
2023/08/04 08:56:02;;;;;;;13.80;7.28;;;;;;;;;;7373382;19;20409;-73
2023/08/04 08:58:32;;;;;;;13.98;6.93;;;;;;;;;;7373601;19;20026;-73
2023/08/04 09:00:57;;;;;;;10.70;6.72;;;;;;;;;;7372493;19;20006;-74
2023/08/04 09:03:23;;;;;;;12.07;6.07;;;;;;;;;;7372328;19;20066;-73
2023/08/04 09:05:48;;;;;;;11.55;5.95;;;;;;;;;;7394694;19;20006;-73
2023/08/04 09:08:13;;;;;;;11.05;6.45;;;;;;;;;;7371675;19;20997;-74
2023/08/04 09:10:39;;;;;;;10.13;6.13;;;;;;;;;;7372253;19;20104;-74
2023/08/04 09:13:08;;;;;;;13.95;6.15;;;;;;;;;;7372834;19;20027;-74
2023/08/04 09:15:50;;;;;;;12.02;6.30;;;;;;;;;;7372597;19;20017;-73
2023/08/04 09:18:32;;;;;;;14.95;6.55;;;;;;;;;;7372495;19;20346;-74
2023/08/04 09:21:08;;;;;;;14.02;6.90;;;;;;;;;;7392118;19;19995;-73
2023/08/04 09:23:48;;;;;;;14.02;6.93;;;;;;;;;;7371450;19;20007;-70
2023/08/04 09:26:13;;;;;;;17.17;7.32;;;;;;;;;;7371198;19;20002;-70
2023/08/04 09:28:39;;;;;;;11.10;7.10;;;;;;;;;;7372463;19;20527;-70
2023/08/04 09:31:06;;;;;;;12.40;7.20;;;;;;;;;;7370553;19;20472;-72
2023/08/04 09:33:33;;;;;;;15.77;7.57;;;;;;;;;;7372375;19;20003;-72
2023/08/04 09:36:16;;;;;;;13.80;7.88;;;;;;;;;;7393916;19;20461;-71
2023/08/04 09:38:42;;;;;;;11.10;7.10;;;;;;;;;;7371350;19;20006;-74
2023/08/04 09:41:13;;;;;;;12.85;7.63;;;;;;;;;;7370339;19;20039;-71
2023/08/04 09:43:44;;;;;;;12.73;6.72;;;;;;;;;;7369979;19;20036;-70
2023/08/04 09:46:09;;;;;;;14.23;7.13;;;;;;;;;;7365749;19;19999;-70
2023/08/04 09:48:35;;;;;;;16.92;8.23;;;;;;;;;;7370667;19;20148;-71
2023/08/04 09:51:19;;;;;;;13.90;7.85;;;;;;;;;;7391786;19;20481;-71
2023/08/04 09:53:54;;;;;;;14.68;8.20;;;;;;;;;;7367000;19;20006;-71
2023/08/04 09:56:21;;;;;;;16.48;7.75;;;;;;;;;;7367847;19;20010;-70
2023/08/04 09:58:48;;;;;;;14.80;7.43;;;;;;;;;;7366812;19;20035;-71
2023/08/04 10:01:14;;;;;;;12.82;7.40;;;;;;;;;;7367985;19;20010;-71
2023/08/04 10:03:41;;;;;;;13.38;7.68;;;;;;;;;;7365444;19;20021;-71
2023/08/04 10:06:07;;;;;;;13.65;7.05;;;;;;;;;;7391364;19;20002;-71
2023/08/04 10:08:36;;;;;;;11.98;7.35;;;;;;;;;;7370195;19;20475;-71
2023/08/04 10:11:02;;;;;;;15.43;7.53;;;;;;;;;;7370472;19;20318;-72
2023/08/04 10:13:32;;;;;;;16.92;7.38;;;;;;;;;;7370194;19;20014;-71
2023/08/04 10:16:00;;;;;;;10.32;7.05;;;;;;;;;;7369001;19;20104;-71
2023/08/04 10:18:25;;;;;;;13.27;7.18;;;;;;;;;;7369811;19;20011;-71
2023/08/04 10:20:52;;;;;;;12.05;6.30;;;;;;;;;;7390755;19;20014;-71
2023/08/04 10:23:22;;;;;;;12.70;6.07;;;;;;;;;;7368092;19;20068;-71
2023/08/04 10:25:58;;;;;;;12.73;5.95;;;;;;;;;;7369472;19;20503;-70
2023/08/04 10:28:24;;;;;;;12.35;5.93;;;;;;;;;;7380343;19;20791;-70
2023/08/04 10:31:02;;;;;;;10.25;5.32;;;;;;;;;;7386956;19;20002;-70
2023/08/04 10:33:28;;;;;;;9.60;5.00;;;;;;;;;;7382643;19;20028;-70
2023/08/04 10:36:04;;;;;;;7.38;5.03;;;;;;;;;;7406942;19;20003;-71
2023/08/04 10:38:43;;;;;;;8.27;4.70;;;;;;;;;;7372721;19;19995;-71
2023/08/04 10:41:09;;;;;;;12.18;5.18;;;;;;;;;;7368676;19;20552;-71
2023/08/04 10:43:38;;;;;;;7.80;4.57;;;;;;;;;;7370117;19;20010;-71
2023/08/04 10:46:10;;;;;;;8.15;4.50;;;;;;;;;;7370374;19;20401;-71
2023/08/04 10:48:38;;;;;;;11.52;4.88;;;;;;;;;;7370981;19;20006;-71
2023/08/04 10:51:05;;;;;;;9.35;4.90;;;;;;;;;;7392312;19;20023;-71
2023/08/04 10:53:30;;;;;;;41.25;7.78;;;;;;;;;;7368902;19;20010;-71
2023/08/04 10:55:57;;;;;;;10.50;4.97;;;;;;;;;;7369559;19;20496;-71
2023/08/04 10:58:27;;;;;;;13.52;4.68;;;;;;;;;;7369395;19;20006;-71
2023/08/04 11:00:53;;;;;;;10.23;4.40;;;;;;;;;;7369413;19;20070;-71
2023/08/04 11:03:28;;;;;;;9.35;4.25;;;;;;;;;;7368923;19;20404;-71
2023/08/04 11:05:54;;;;;;;9.85;4.10;;;;;;;;;;7389368;19;20001;-71
2023/08/04 11:08:20;;;;;;;8.23;4.00;;;;;;;;;;7367982;19;20024;-71
2023/08/04 11:10:50;;;;;;;10.00;4.10;;;;;;;;;;7370233;19;20006;-71
2023/08/04 11:13:20;;;;;;;9.63;3.97;;;;;;;;;;7368342;19;20036;-71
2023/08/04 11:15:46;;;;;;;14.55;4.00;;;;;;;;;;7368178;19;19998;-71
2023/08/04 11:18:14;;;;;;;5.93;3.55;;;;;;;;;;7368525;19;20751;-71
2023/08/04 11:20:41;;;;;;;8.82;3.72;;;;;;;;;;7389300;19;19995;-71
2023/08/04 11:23:10;;;;;;;7.03;3.78;;;;;;;;;;7367586;19;20112;-71
2023/08/04 11:25:37;;;;;;;6.72;3.83;;;;;;;;;;7368190;19;20076;-71
2023/08/04 11:28:03;;;;;;;7.68;3.88;;;;;;;;;;7368760;19;20087;-70
2023/08/04 11:30:28;;;;;;;8.63;3.60;;;;;;;;;;7366836;19;20000;-71
2023/08/04 11:32:54;;;;;;;8.18;3.47;;;;;;;;;;7390182;19;20113;-70
2023/08/04 11:35:19;;;;;;;12.93;3.80;;;;;;;;;;7366566;19;19999;-70
2023/08/04 11:37:45;;;;;;;6.95;3.80;;;;;;;;;;7368968;19;20003;-71
2023/08/04 11:40:23;;;;;;;7.85;4.00;;;;;;;;;;7367477;19;20006;-70
2023/08/04 11:42:49;;;;;;;6.22;3.20;;;;;;;;;;7369060;19;20023;-71
2023/08/04 11:45:14;;;;;;;8.20;3.20;;;;;;;;;;7365979;19;20448;-71
2023/08/04 11:47:40;;;;;;;6.40;3.17;;;;;;;;;;7389565;19;19995;-71
2023/08/04 11:50:07;;;;;;;6.95;3.47;;;;;;;;;;7367639;19;20085;-70
2023/08/04 11:52:37;;;;;;;6.68;3.25;;;;;;;;;;7366960;19;20460;-70
2023/08/04 11:55:04;;;;;;;6.38;3.20;;;;;;;;;;7366973;19;20650;-71
2023/08/04 11:57:29;;;;;;;6.00;3.17;;;;;;;;;;7367391;19;21277;-70
2023/08/04 11:59:55;;;;;;;5.65;3.05;;;;;;;;;;7389768;19;20006;-70
2023/08/04 12:02:21;;;;;;;7.05;3.33;;;;;;;;;;7367479;19;20032;-70
2023/08/04 12:05:04;;;;;;;7.15;3.17;;;;;;;;;;7367316;19;20011;-71
2023/08/04 12:07:29;;;;;;;7.93;3.58;;;;;;;;;;7367676;19;20014;-70
2023/08/04 12:09:54;;;;;;;6.55;3.25;;;;;;;;;;7366525;19;20417;-70
2023/08/04 12:12:34;;;;;;;6.20;2.88;;;;;;;;;;7367117;19;20477;-71
2023/08/04 12:15:00;;;;;;;6.53;3.20;;;;;;;;;;7386345;19;20007;-71
2023/08/04 12:17:35;;;;;;;6.90;3.50;;;;;;;;;;7366623;19;20015;-67
2023/08/04 12:20:01;;;;;;;9.52;3.53;;;;;;;;;;7367228;19;20074;-67
2023/08/04 12:22:26;;;;;;;10.63;3.75;;;;;;;;;;7367644;19;20457;-67
2023/08/04 12:24:51;;;;;;;7.55;3.58;;;;;;;;;;7365900;19;20014;-68
2023/08/04 12:27:17;;;;;;;6.22;3.72;;;;;;;;;;7367179;19;20030;-67
2023/08/04 12:29:42;;;;;;;6.82;2.90;;;;;;;;;;7388826;19;20556;-67
2023/08/04 12:32:07;;;;;;;7.80;3.45;;;;;;;;;;7366717;19;20014;-66
2023/08/04 12:34:33;;;;;;;5.53;3.38;;;;;;;;;;7366511;19;20007;-67
2023/08/04 12:36:58;;;;;;;9.32;3.10;;;;;;;;;;7367176;19;20002;-67
2023/08/04 12:39:25;;;;;;;14.45;3.58;;;;;;;;;;7365014;19;20044;-66
2023/08/04 12:41:50;;;;;;;7.97;3.20;;;;;;;;;;7389678;19;20006;-67
2023/08/04 12:44:16;;;;;;;6.63;2.92;;;;;;;;;;7372068;19;20011;-68
2023/08/04 12:46:41;;;;;;;11.68;3.45;;;;;;;;;;7373694;19;20427;-68
2023/08/04 12:49:07;;;;;;;14.90;3.13;;;;;;;;;;7373332;19;20015;-68
2023/08/04 12:51:32;;;;;;;6.85;3.17;;;;;;;;;;7373130;19;20419;-68
2023/08/04 12:53:57;;;;;;;6.15;3.08;;;;;;;;;;7394568;19;20544;-68
2023/08/04 12:56:23;;;;;;;10.70;3.20;;;;;;;;;;7372983;19;20011;-68
2023/08/04 12:58:48;;;;;;;13.00;3.85;;;;;;;;;;7373272;19;20356;-67
2023/08/04 13:01:14;;;;;;;7.60;3.08;;;;;;;;;;7372940;19;20010;-67
2023/08/04 13:03:39;;;;;;;8.18;3.15;;;;;;;;;;7372753;19;20018;-68
2023/08/04 13:06:04;;;;;;;6.40;2.80;;;;;;;;;;7394382;19;20006;-68
2023/08/04 13:08:30;;;;;;;7.25;2.58;;;;;;;;;;7372578;19;20016;-68
2023/08/04 13:10:59;;;;;;;8.23;3.05;;;;;;;;;;7372166;19;20006;-68
2023/08/04 13:13:24;;;;;;;5.28;2.97;;;;;;;;;;7375146;19;20014;-67
2023/08/04 13:15:49;;;;;;;5.75;2.80;;;;;;;;;;7376291;19;20106;-67
2023/08/04 13:18:15;;;;;;;13.35;3.65;;;;;;;;;;7376541;19;20002;-68
2023/08/04 13:20:41;;;;;;;8.70;3.10;;;;;;;;;;7392711;19;19997;-67
2023/08/04 13:23:07;;;;;;;7.90;3.10;;;;;;;;;;7372146;19;20046;-67
2023/08/04 13:25:37;;;;;;;6.20;2.85;;;;;;;;;;7371353;19;20085;-68
2023/08/04 13:28:02;;;;;;;8.50;3.20;;;;;;;;;;7372026;19;20709;-68
2023/08/04 13:30:27;;;;;;;6.40;3.10;;;;;;;;;;7372067;19;20023;-67
2023/08/04 13:32:53;;;;;;;11.20;3.40;;;;;;;;;;7393467;19;20081;-68
2023/08/04 13:35:18;;;;;;;7.97;3.42;;;;;;;;;;7370251;19;20078;-67
2023/08/04 13:37:43;;;;;;;7.03;3.38;;;;;;;;;;7370482;19;20014;-66
2023/08/04 13:40:09;;;;;;;8.18;3.38;;;;;;;;;;7368726;19;20640;-67
2023/08/04 13:42:34;;;;;;;6.70;3.30;;;;;;;;;;7370750;19;20034;-67
2023/08/04 13:45:00;;;;;;;5.82;3.20;;;;;;;;;;7391251;19;20117;-68
2023/08/04 13:47:25;;;;;;;9.00;3.38;;;;;;;;;;7370326;19;20029;-66
2023/08/04 13:49:51;;;;;;;8.20;3.47;;;;;;;;;;7371461;19;20050;-66
2023/08/04 13:52:16;;;;;;;5.35;3.03;;;;;;;;;;7371111;19;20019;-67
2023/08/04 13:54:41;;;;;;;5.80;3.03;;;;;;;;;;7368229;19;20499;-67
2023/08/04 13:57:07;;;;;;;6.38;2.95;;;;;;;;;;7393683;19;20118;-67
2023/08/04 13:59:32;;;;;;;6.13;3.15;;;;;;;;;;7371323;19;20007;-67
2023/08/04 14:01:57;;;;;;;5.63;2.90;;;;;;;;;;7369238;19;20086;-67
2023/08/04 14:04:23;;;;;;;8.15;3.30;;;;;;;;;;7368772;19;20460;-67
2023/08/04 14:06:49;;;;;;;6.40;3.13;;;;;;;;;;7369616;19;20602;-67
2023/08/04 14:09:14;;;;;;;9.02;3.30;;;;;;;;;;7370938;19;20003;-67
2023/08/04 14:11:39;;;;;;;8.10;2.90;;;;;;;;;;7387228;19;20398;-67
2023/08/04 14:14:05;;;;;;;6.32;3.00;;;;;;;;;;7363727;19;20492;-67
2023/08/04 14:16:30;;;;;;;4.95;3.15;;;;;;;;;;7364959;19;19999;-67
2023/08/04 14:18:55;;;;;;;5.55;3.17;;;;;;;;;;7367916;19;20006;-67
2023/08/04 14:21:20;;;;;;;7.10;3.67;;;;;;;;;;7363887;19;20013;-67
2023/08/04 14:23:46;;;;;;;6.18;3.30;;;;;;;;;;7386416;19;20066;-67
2023/08/04 14:26:11;;;;;;;11.52;3.78;;;;;;;;;;7365242;19;20002;-67
2023/08/04 14:28:36;;;;;;;10.70;3.47;;;;;;;;;;7363808;19;20007;-67
2023/08/04 14:31:02;;;;;;;11.10;3.55;;;;;;;;;;7367182;19;20006;-67
2023/08/04 14:33:27;;;;;;;9.23;3.42;;;;;;;;;;7372689;19;20007;-67